createdAt,value
2023-04-18T00:00:30.854Z,380.00
2023-04-18T00:01:30.886Z,381.00
2023-04-18T00:02:31.011Z,381.00
2023-04-18T00:03:31.207Z,378.00
2023-04-18T00:04:31.053Z,377.00
2023-04-18T00:05:30.926Z,377.00
2023-04-18T00:06:30.893Z,376.00
2023-04-18T00:07:30.893Z,374.00
2023-04-18T00:08:30.872Z,374.00
2023-04-18T00:09:30.905Z,375.00
2023-04-18T00:10:30.845Z,372.00
2023-04-18T00:11:30.831Z,372.00
2023-04-18T00:12:30.863Z,371.00
2023-04-18T00:13:30.803Z,372.00
2023-04-18T00:14:30.786Z,372.00
2023-04-18T00:15:30.780Z,372.00
2023-04-18T00:16:30.781Z,371.00
2023-04-18T00:17:30.780Z,372.00
2023-04-18T00:18:30.786Z,373.00
2023-04-18T00:19:30.812Z,371.00
2023-04-18T00:20:30.858Z,373.00
2023-04-18T00:21:30.885Z,372.00
2023-04-18T00:22:30.916Z,373.00
2023-04-18T00:23:30.958Z,374.00
2023-04-18T00:24:30.988Z,375.00
2023-04-18T00:25:31.030Z,375.00
2023-04-18T00:26:31.039Z,376.00
2023-04-18T00:27:31.084Z,376.00
2023-04-18T00:28:31.142Z,375.00
2023-04-18T00:29:31.143Z,374.00
2023-04-18T00:30:31.181Z,372.00
2023-04-18T00:31:31.286Z,371.00
2023-04-18T00:32:31.239Z,371.00
2023-04-18T00:33:31.257Z,371.00
2023-04-18T00:34:31.288Z,374.00
2023-04-18T00:35:31.323Z,376.00
2023-04-18T00:36:31.384Z,374.00
2023-04-18T00:37:31.369Z,376.00
2023-04-18T00:38:31.417Z,377.00
2023-04-18T00:39:31.435Z,377.00
2023-04-18T00:40:31.474Z,377.00
2023-04-18T00:41:31.497Z,377.00
2023-04-18T00:42:31.524Z,376.00
2023-04-18T00:43:31.562Z,376.00
2023-04-18T00:44:31.578Z,374.00
2023-04-18T00:45:31.618Z,372.00
2023-04-18T00:46:31.694Z,371.00
2023-04-18T00:47:31.689Z,371.00
2023-04-18T00:48:31.718Z,371.00
2023-04-18T00:49:31.739Z,372.00
2023-04-18T00:50:31.790Z,374.00
2023-04-18T00:51:31.798Z,374.00
2023-04-18T00:52:31.837Z,372.00
2023-04-18T00:53:31.866Z,373.00
2023-04-18T00:54:31.895Z,376.00
2023-04-18T00:55:31.937Z,376.00
2023-04-18T00:56:31.959Z,375.00
2023-04-18T00:57:31.977Z,376.00
2023-04-18T00:58:32.011Z,373.00
2023-04-18T00:59:32.047Z,368.00
2023-04-18T01:00:32.088Z,366.00
2023-04-18T01:01:32.113Z,366.00
2023-04-18T01:02:32.220Z,363.00
2023-04-18T01:03:32.261Z,362.00
2023-04-18T01:04:32.298Z,362.00
2023-04-18T01:05:32.265Z,360.00
2023-04-18T01:06:32.267Z,360.00
2023-04-18T01:07:32.303Z,362.00
2023-04-18T01:08:32.341Z,362.00
2023-04-18T01:09:32.390Z,363.00
2023-04-18T01:10:32.420Z,365.00
2023-04-18T01:11:32.424Z,365.00
2023-04-18T01:12:32.458Z,369.00
2023-04-18T01:13:32.484Z,370.00
2023-04-18T01:14:32.526Z,370.00
2023-04-18T01:15:32.620Z,370.00
2023-04-18T01:16:32.598Z,373.00
2023-04-18T01:17:32.648Z,372.00
2023-04-18T01:18:32.656Z,370.00
2023-04-18T01:19:32.697Z,371.00
2023-04-18T01:20:32.727Z,371.00
2023-04-18T01:21:32.761Z,371.00
2023-04-18T01:22:32.795Z,370.00
2023-04-18T01:23:32.819Z,370.00
2023-04-18T01:24:32.855Z,369.00
2023-04-18T01:25:32.921Z,368.00
2023-04-18T01:26:32.925Z,367.00
2023-04-18T01:27:32.958Z,365.00
2023-04-18T01:28:32.986Z,368.00
2023-04-18T01:29:33.025Z,368.00
2023-04-18T01:30:33.070Z,367.00
2023-04-18T01:31:33.141Z,366.00
2023-04-18T01:32:33.192Z,365.00
2023-04-18T01:33:33.165Z,363.00
2023-04-18T01:34:33.210Z,363.00
2023-04-18T01:35:33.251Z,364.00
2023-04-18T01:36:33.279Z,366.00
2023-04-18T01:37:33.320Z,367.00
2023-04-18T01:38:33.341Z,367.00
2023-04-18T01:39:33.379Z,369.00
2023-04-18T01:40:33.418Z,368.00
2023-04-18T01:41:33.447Z,368.00
2023-04-18T01:42:33.480Z,366.00
2023-04-18T01:43:33.524Z,365.00
2023-04-18T01:44:33.554Z,366.00
2023-04-18T01:45:33.596Z,366.00
2023-04-18T01:46:33.638Z,366.00
2023-04-18T01:47:33.680Z,365.00
2023-04-18T01:48:34.066Z,364.00
2023-04-18T01:49:33.753Z,364.00
2023-04-18T01:50:33.785Z,362.00
2023-04-18T01:51:33.805Z,362.00
2023-04-18T01:52:33.842Z,361.00
2023-04-18T01:53:33.875Z,361.00
2023-04-18T01:54:33.907Z,360.00
2023-04-18T01:55:33.945Z,359.00
2023-04-18T01:56:33.994Z,359.00
2023-04-18T01:57:34.009Z,359.00
2023-04-18T01:58:34.075Z,360.00
2023-04-18T01:59:34.093Z,359.00
2023-04-18T02:00:34.136Z,359.00
2023-04-18T02:01:34.171Z,358.00
2023-04-18T02:02:34.319Z,358.00
2023-04-18T02:03:34.400Z,359.00
2023-04-18T02:04:34.266Z,359.00
2023-04-18T02:05:34.314Z,359.00
2023-04-18T02:06:34.343Z,359.00
2023-04-18T02:07:34.373Z,358.00
2023-04-18T02:08:34.419Z,356.00
2023-04-18T02:09:34.457Z,357.00
2023-04-18T02:10:34.515Z,358.00
2023-04-18T02:11:34.548Z,360.00
2023-04-18T02:12:34.568Z,359.00
2023-04-18T02:13:34.596Z,357.00
2023-04-18T02:14:34.642Z,356.00
2023-04-18T02:15:34.676Z,356.00
2023-04-18T02:16:34.745Z,356.00
2023-04-18T02:17:34.858Z,356.00
2023-04-18T02:18:34.812Z,357.00
2023-04-18T02:19:34.854Z,356.00
2023-04-18T02:20:34.903Z,355.00
2023-04-18T02:21:34.951Z,355.00
2023-04-18T02:22:35.014Z,354.00
2023-04-18T02:23:35.021Z,354.00
2023-04-18T02:24:35.083Z,353.00
2023-04-18T02:25:35.097Z,351.00
2023-04-18T02:26:35.161Z,349.00
2023-04-18T02:27:35.175Z,352.00
2023-04-18T02:28:35.226Z,351.00
2023-04-18T02:29:35.264Z,351.00
2023-04-18T02:30:35.316Z,351.00
2023-04-18T02:31:35.380Z,353.00
2023-04-18T02:32:35.439Z,352.00
2023-04-18T02:33:35.382Z,353.00
2023-04-18T02:34:35.359Z,355.00
2023-04-18T02:35:35.352Z,355.00
2023-04-18T02:36:35.333Z,356.00
2023-04-18T02:37:35.324Z,355.00
2023-04-18T02:38:35.316Z,355.00
2023-04-18T02:39:35.302Z,355.00
2023-04-18T02:40:35.326Z,355.00
2023-04-18T02:41:35.315Z,356.00
2023-04-18T02:42:35.279Z,359.00
2023-04-18T02:43:35.283Z,359.00
2023-04-18T02:44:35.277Z,359.00
2023-04-18T02:45:35.323Z,360.00
2023-04-18T02:46:35.289Z,357.00
2023-04-18T02:47:47.005Z,357.00
2023-04-18T02:48:36.418Z,356.00
2023-04-18T02:49:35.256Z,356.00
2023-04-18T02:50:35.269Z,353.00
2023-04-18T02:51:35.256Z,354.00
2023-04-18T02:52:35.307Z,356.00
2023-04-18T02:53:35.240Z,356.00
2023-04-18T02:54:35.233Z,356.00
2023-04-18T02:55:35.239Z,355.00
2023-04-18T02:56:35.249Z,356.00
2023-04-18T02:57:35.223Z,357.00
2023-04-18T02:58:35.215Z,360.00
2023-04-18T02:59:35.189Z,361.00
2023-04-18T03:00:35.186Z,361.00
2023-04-18T03:01:35.268Z,359.00
2023-04-18T03:02:35.330Z,359.00
2023-04-18T03:03:35.298Z,359.00
2023-04-18T03:04:35.147Z,359.00
2023-04-18T03:05:35.136Z,357.00
2023-04-18T03:06:35.136Z,355.00
2023-04-18T03:07:35.107Z,353.00
2023-04-18T03:08:35.092Z,352.00
2023-04-18T03:09:35.113Z,352.00
2023-04-18T03:10:35.087Z,353.00
2023-04-18T03:11:35.083Z,354.00
2023-04-18T03:12:35.122Z,356.00
2023-04-18T03:13:35.167Z,355.00
2023-04-18T03:14:35.213Z,356.00
2023-04-18T03:15:35.298Z,356.00
2023-04-18T03:16:35.330Z,354.00
2023-04-18T03:17:35.390Z,355.00
2023-04-18T03:18:35.405Z,352.00
2023-04-18T03:19:35.472Z,354.00
2023-04-18T03:20:35.499Z,356.00
2023-04-18T03:21:35.569Z,356.00
2023-04-18T03:22:35.603Z,356.00
2023-04-18T03:23:35.650Z,354.00
2023-04-18T03:24:35.706Z,353.00
2023-04-18T03:25:35.744Z,353.00
2023-04-18T03:26:35.800Z,353.00
2023-04-18T03:27:35.842Z,355.00
2023-04-18T03:28:35.901Z,359.00
2023-04-18T03:29:35.934Z,359.00
2023-04-18T03:30:35.992Z,359.00
2023-04-18T03:31:36.064Z,358.00
2023-04-18T03:32:36.075Z,358.00
2023-04-18T03:33:36.121Z,355.00
2023-04-18T03:34:36.175Z,355.00
2023-04-18T03:35:36.203Z,353.00
2023-04-18T03:36:36.232Z,354.00
2023-04-18T03:37:36.265Z,354.00
2023-04-18T03:38:36.301Z,355.00
2023-04-18T03:39:36.340Z,356.00
2023-04-18T03:40:36.487Z,357.00
2023-04-18T03:41:36.422Z,354.00
2023-04-18T03:42:36.459Z,355.00
2023-04-18T03:43:36.539Z,357.00
2023-04-18T03:44:36.549Z,357.00
2023-04-18T03:45:36.574Z,357.00
2023-04-18T03:46:36.683Z,355.00
2023-04-18T03:47:36.732Z,356.00
2023-04-18T03:48:36.837Z,359.00
2023-04-18T03:49:36.841Z,361.00
2023-04-18T03:50:36.829Z,359.00
2023-04-18T03:51:36.897Z,359.00
2023-04-18T03:52:36.922Z,358.00
2023-04-18T03:53:36.920Z,357.00
2023-04-18T03:54:36.962Z,358.00
2023-04-18T03:55:37.012Z,358.00
2023-04-18T03:56:37.056Z,357.00
2023-04-18T03:57:37.099Z,359.00
2023-04-18T03:58:37.152Z,356.00
2023-04-18T03:59:37.183Z,355.00
2023-04-18T04:00:37.252Z,356.00
2023-04-18T04:01:37.262Z,357.00
2023-04-18T04:02:37.368Z,358.00
2023-04-18T04:03:37.393Z,360.00
2023-04-18T04:04:37.214Z,362.00
2023-04-18T04:05:37.179Z,363.00
2023-04-18T04:06:37.155Z,364.00
2023-04-18T04:07:37.131Z,362.00
2023-04-18T04:08:37.135Z,361.00
2023-04-18T04:09:37.116Z,360.00
2023-04-18T04:10:37.104Z,359.00
2023-04-18T04:11:37.143Z,361.00
2023-04-18T04:12:37.213Z,364.00
2023-04-18T04:13:37.236Z,361.00
2023-04-18T04:14:37.293Z,362.00
2023-04-18T04:15:37.325Z,363.00
2023-04-18T04:16:37.400Z,363.00
2023-04-18T04:17:37.447Z,361.00
2023-04-18T04:18:37.462Z,359.00
2023-04-18T04:19:37.500Z,357.00
2023-04-18T04:20:37.536Z,357.00
2023-04-18T04:21:37.577Z,357.00
2023-04-18T04:22:37.638Z,357.00
2023-04-18T04:23:37.660Z,358.00
2023-04-18T04:24:37.709Z,361.00
2023-04-18T04:25:37.763Z,361.00
2023-04-18T04:26:37.791Z,360.00
2023-04-18T04:27:37.840Z,361.00
2023-04-18T04:28:37.880Z,357.00
2023-04-18T04:29:37.873Z,359.00
2023-04-18T04:30:37.893Z,360.00
2023-04-18T04:31:37.887Z,359.00
2023-04-18T04:32:37.863Z,360.00
2023-04-18T04:33:37.821Z,361.00
2023-04-18T04:34:37.810Z,360.00
2023-04-18T04:35:37.890Z,360.00
2023-04-18T04:36:37.779Z,362.00
2023-04-18T04:37:37.758Z,359.00
2023-04-18T04:38:37.749Z,357.00
2023-04-18T04:39:37.737Z,354.00
2023-04-18T04:40:37.766Z,354.00
2023-04-18T04:41:37.805Z,355.00
2023-04-18T04:42:37.867Z,357.00
2023-04-18T04:43:37.908Z,357.00
2023-04-18T04:44:37.973Z,359.00
2023-04-18T04:45:38.044Z,359.00
2023-04-18T04:46:38.037Z,360.00
2023-04-18T04:47:38.119Z,361.00
2023-04-18T04:48:38.123Z,359.00
2023-04-18T04:49:38.157Z,361.00
2023-04-18T04:50:38.230Z,360.00
2023-04-18T04:51:38.257Z,361.00
2023-04-18T04:52:38.316Z,360.00
2023-04-18T04:53:38.360Z,359.00
2023-04-18T04:54:38.403Z,358.00
2023-04-18T04:55:38.474Z,358.00
2023-04-18T04:56:38.561Z,357.00
2023-04-18T04:57:38.593Z,358.00
2023-04-18T04:58:38.640Z,359.00
2023-04-18T04:59:38.682Z,359.00
2023-04-18T05:00:38.746Z,360.00
2023-04-18T05:01:38.919Z,362.00
2023-04-18T05:02:38.929Z,362.00
2023-04-18T05:03:38.963Z,364.00
2023-04-18T05:04:39.019Z,361.00
2023-04-18T05:05:38.817Z,359.00
2023-04-18T05:06:40.233Z,357.00
2023-04-18T05:07:38.786Z,357.00
2023-04-18T05:08:38.773Z,355.00
2023-04-18T05:09:38.762Z,355.00
2023-04-18T05:10:38.749Z,355.00
2023-04-18T05:11:38.747Z,356.00
2023-04-18T05:12:38.734Z,358.00
2023-04-18T05:13:38.808Z,357.00
2023-04-18T05:14:38.840Z,360.00
2023-04-18T05:15:38.878Z,359.00
2023-04-18T05:16:38.941Z,358.00
2023-04-18T05:17:39.007Z,359.00
2023-04-18T05:18:39.067Z,358.00
2023-04-18T05:19:39.094Z,357.00
2023-04-18T05:20:39.111Z,360.00
2023-04-18T05:21:39.237Z,362.00
2023-04-18T05:22:39.208Z,362.00
2023-04-18T05:23:39.261Z,363.00
2023-04-18T05:24:39.305Z,362.00
2023-04-18T05:25:39.337Z,362.00
2023-04-18T05:26:39.368Z,362.00
2023-04-18T05:27:39.410Z,363.00
2023-04-18T05:28:39.474Z,364.00
2023-04-18T05:29:39.498Z,365.00
2023-04-18T05:30:39.650Z,364.00
2023-04-18T05:31:39.591Z,364.00
2023-04-18T05:32:39.748Z,364.00
2023-04-18T05:33:39.654Z,367.00
2023-04-18T05:34:39.691Z,365.00
2023-04-18T05:35:39.737Z,361.00
2023-04-18T05:36:39.724Z,358.00
2023-04-18T05:37:39.709Z,356.00
2023-04-18T05:38:39.671Z,355.00
2023-04-18T05:39:39.664Z,356.00
2023-04-18T05:40:39.679Z,361.00
2023-04-18T05:41:39.635Z,363.00
2023-04-18T05:42:39.646Z,361.00
2023-04-18T05:43:39.620Z,362.00
2023-04-18T05:44:39.631Z,360.00
2023-04-18T05:45:39.596Z,360.00
2023-04-18T05:46:39.653Z,361.00
2023-04-18T05:47:39.630Z,362.00
2023-04-18T05:48:39.602Z,361.00
2023-04-18T05:49:39.587Z,363.00
2023-04-18T05:50:39.589Z,362.00
2023-04-18T05:51:39.580Z,361.00
2023-04-18T05:52:39.553Z,364.00
2023-04-18T05:53:39.628Z,367.00
2023-04-18T05:54:39.564Z,369.00
2023-04-18T05:55:39.687Z,368.00
2023-04-18T05:56:39.661Z,368.00
2023-04-18T05:57:39.701Z,367.00
2023-04-18T05:58:39.768Z,366.00
2023-04-18T05:59:39.772Z,367.00
2023-04-18T06:00:39.868Z,368.00
2023-04-18T06:01:39.847Z,368.00
2023-04-18T06:02:39.986Z,369.00
2023-04-18T06:03:40.158Z,371.00
2023-04-18T06:04:40.196Z,371.00
2023-04-18T06:05:40.093Z,371.00
2023-04-18T06:06:40.030Z,372.00
2023-04-18T06:07:40.084Z,370.00
2023-04-18T06:08:40.135Z,369.00
2023-04-18T06:09:41.171Z,370.00
2023-04-18T06:10:40.197Z,366.00
2023-04-18T06:11:40.260Z,368.00
2023-04-18T06:12:40.282Z,368.00
2023-04-18T06:13:40.334Z,368.00
2023-04-18T06:14:40.320Z,367.00
2023-04-18T06:15:41.144Z,368.00
2023-04-18T06:16:40.314Z,368.00
2023-04-18T06:17:40.304Z,370.00
2023-04-18T06:18:40.635Z,370.00
2023-04-18T06:19:40.302Z,369.00
2023-04-18T06:20:40.295Z,368.00
2023-04-18T06:21:40.257Z,367.00
2023-04-18T06:22:40.205Z,367.00
2023-04-18T06:23:40.183Z,368.00
2023-04-18T06:24:40.166Z,370.00
2023-04-18T06:25:40.168Z,370.00
2023-04-18T06:26:40.187Z,370.00
2023-04-18T06:27:40.160Z,369.00
2023-04-18T06:28:40.161Z,367.00
2023-04-18T06:29:40.139Z,366.00
2023-04-18T06:30:40.162Z,365.00
2023-04-18T06:31:40.185Z,366.00
2023-04-18T06:32:40.127Z,368.00
2023-04-18T06:33:40.112Z,367.00
2023-04-18T06:34:40.105Z,367.00
2023-04-18T06:35:40.073Z,367.00
2023-04-18T06:36:40.171Z,371.00
2023-04-18T06:37:40.051Z,373.00
2023-04-18T06:38:40.045Z,372.00
2023-04-18T06:39:40.011Z,372.00
2023-04-18T06:40:40.006Z,373.00
2023-04-18T06:41:39.984Z,374.00
2023-04-18T06:42:39.988Z,373.00
2023-04-18T06:43:49.172Z,373.00
2023-04-18T06:44:41.047Z,375.00
2023-04-18T06:45:40.005Z,377.00
2023-04-18T06:46:39.981Z,377.00
2023-04-18T06:47:39.993Z,379.00
2023-04-18T06:48:39.970Z,381.00
2023-04-18T06:49:39.940Z,381.00
2023-04-18T06:50:39.970Z,381.00
2023-04-18T06:51:39.959Z,380.00
2023-04-18T06:52:40.077Z,379.00
2023-04-18T06:53:39.912Z,379.00
2023-04-18T06:54:39.876Z,378.00
2023-04-18T06:55:39.874Z,380.00
2023-04-18T06:56:39.855Z,380.00
2023-04-18T06:57:39.886Z,380.00
2023-04-18T06:58:39.867Z,378.00
2023-04-18T06:59:39.841Z,376.00
2023-04-18T07:00:39.826Z,377.00
2023-04-18T07:01:39.838Z,379.00
2023-04-18T07:02:39.938Z,380.00
2023-04-18T07:03:39.843Z,380.00
2023-04-18T07:04:39.952Z,376.00
2023-04-18T07:05:39.754Z,378.00
2023-04-18T07:06:39.749Z,379.00
2023-04-18T07:07:39.765Z,379.00
2023-04-18T07:08:39.736Z,380.00
2023-04-18T07:09:39.718Z,381.00
2023-04-18T07:10:39.697Z,380.00
2023-04-18T07:11:39.681Z,382.00
2023-04-18T07:12:39.661Z,380.00
2023-04-18T07:13:39.663Z,380.00
2023-04-18T07:14:39.662Z,383.00
2023-04-18T07:15:39.636Z,383.00
2023-04-18T07:16:39.659Z,385.00
2023-04-18T07:17:39.606Z,385.00
2023-04-18T07:18:39.599Z,388.00
2023-04-18T07:19:39.574Z,389.00
2023-04-18T07:20:39.642Z,388.00
2023-04-18T07:21:39.540Z,387.00
2023-04-18T07:22:39.500Z,385.00
2023-04-18T07:23:39.541Z,383.00
2023-04-18T07:24:39.569Z,384.00
2023-04-18T07:25:39.579Z,382.00
2023-04-18T07:26:39.629Z,382.00
2023-04-18T07:27:39.670Z,383.00
2023-04-18T07:28:39.717Z,382.00
2023-04-18T07:29:39.768Z,383.00
2023-04-18T07:30:39.817Z,384.00
2023-04-18T07:31:39.788Z,384.00
2023-04-18T07:32:39.776Z,386.00
2023-04-18T07:33:39.754Z,384.00
2023-04-18T07:34:39.801Z,383.00
2023-04-18T07:35:39.779Z,382.00
2023-04-18T07:36:40.685Z,383.00
2023-04-18T07:37:39.768Z,383.00
2023-04-18T07:38:39.715Z,384.00
2023-04-18T07:39:39.716Z,388.00
2023-04-18T07:40:39.808Z,388.00
2023-04-18T07:41:39.729Z,389.00
2023-04-18T07:42:39.679Z,390.00
2023-04-18T07:43:39.674Z,390.00
2023-04-18T07:44:39.680Z,391.00
2023-04-18T07:45:39.654Z,389.00
2023-04-18T07:46:39.693Z,387.00
2023-04-18T07:47:39.957Z,387.00
2023-04-18T07:48:39.605Z,388.00
2023-04-18T07:49:39.569Z,386.00
2023-04-18T07:50:39.603Z,384.00
2023-04-18T07:51:39.502Z,383.00
2023-04-18T07:52:39.663Z,383.00
2023-04-18T07:53:39.469Z,384.00
2023-04-18T07:54:39.581Z,385.00
2023-04-18T07:55:39.484Z,387.00
2023-04-18T07:56:39.502Z,386.00
2023-04-18T07:57:39.514Z,388.00
2023-04-18T07:58:39.565Z,389.00
2023-04-18T07:59:39.579Z,389.00
2023-04-18T08:00:39.623Z,389.00
2023-04-18T08:01:39.738Z,387.00
2023-04-18T08:02:39.926Z,385.00
2023-04-18T08:03:39.860Z,385.00
2023-04-18T08:04:39.915Z,387.00
2023-04-18T08:05:39.988Z,386.00
2023-04-18T08:06:39.884Z,387.00
2023-04-18T08:07:39.910Z,391.00
2023-04-18T08:08:39.950Z,391.00
2023-04-18T08:09:40.023Z,391.00
2023-04-18T08:10:40.130Z,390.00
2023-04-18T08:11:40.075Z,393.00
2023-04-18T08:12:40.209Z,393.00
2023-04-18T08:13:40.178Z,393.00
2023-04-18T08:14:40.241Z,392.00
2023-04-18T08:15:40.284Z,392.00
2023-04-18T08:16:40.353Z,391.00
2023-04-18T08:17:40.439Z,393.00
2023-04-18T08:18:40.440Z,392.00
2023-04-18T08:19:40.409Z,392.00
2023-04-18T08:20:40.382Z,391.00
2023-04-18T08:21:40.359Z,391.00
2023-04-18T08:22:53.772Z,391.00
2023-04-18T08:23:41.335Z,391.00
2023-04-18T08:24:41.685Z,391.00
2023-04-18T08:25:41.268Z,392.00
2023-04-18T08:26:40.230Z,393.00
2023-04-18T08:27:40.235Z,395.00
2023-04-18T08:28:40.205Z,393.00
2023-04-18T08:29:40.275Z,395.00
2023-04-18T08:30:40.159Z,396.00
2023-04-18T08:31:40.207Z,395.00
2023-04-18T08:32:40.194Z,395.00
2023-04-18T08:33:40.108Z,396.00
2023-04-18T08:34:40.090Z,396.00
2023-04-18T08:35:40.086Z,394.00
2023-04-18T08:36:40.096Z,393.00
2023-04-18T08:37:40.115Z,393.00
2023-04-18T08:38:40.115Z,393.00
2023-04-18T08:39:40.155Z,393.00
2023-04-18T08:40:40.207Z,394.00
2023-04-18T08:41:41.203Z,393.00
2023-04-18T08:42:40.311Z,393.00
2023-04-18T08:43:40.372Z,390.00
2023-04-18T08:44:40.476Z,389.00
2023-04-18T08:45:40.581Z,390.00
2023-04-18T08:46:40.521Z,391.00
2023-04-18T08:47:40.602Z,391.00
2023-04-18T08:48:40.612Z,392.00
2023-04-18T08:49:40.686Z,392.00
2023-04-18T08:50:40.734Z,394.00
2023-04-18T08:51:40.786Z,394.00
2023-04-18T08:52:40.657Z,397.00
2023-04-18T08:53:40.668Z,397.00
2023-04-18T08:54:40.627Z,397.00
2023-04-18T08:55:40.671Z,396.00
2023-04-18T08:56:40.569Z,396.00
2023-04-18T08:57:40.541Z,397.00
2023-04-18T08:58:40.540Z,398.00
2023-04-18T08:59:40.537Z,396.00
2023-04-18T09:00:40.629Z,395.00
2023-04-18T09:01:40.611Z,399.00
2023-04-18T09:02:40.712Z,400.00
2023-04-18T09:03:40.769Z,402.00
2023-04-18T09:04:40.718Z,406.00
2023-04-18T09:05:40.680Z,402.00
2023-04-18T09:06:40.651Z,402.00
2023-04-18T09:07:40.629Z,406.00
2023-04-18T09:08:40.622Z,406.00
2023-04-18T09:09:40.588Z,408.00
2023-04-18T09:10:40.576Z,408.00
2023-04-18T09:11:40.546Z,407.00
2023-04-18T09:12:40.526Z,404.00
2023-04-18T09:13:40.525Z,400.00
2023-04-18T09:14:40.479Z,399.00
2023-04-18T09:15:40.485Z,400.00
2023-04-18T09:16:40.541Z,404.00
2023-04-18T09:17:40.443Z,405.00
2023-04-18T09:18:40.432Z,406.00
2023-04-18T09:19:40.432Z,406.00
2023-04-18T09:20:40.465Z,404.00
2023-04-18T09:21:40.528Z,403.00
2023-04-18T09:22:40.545Z,405.00
2023-04-18T09:23:40.613Z,407.00
2023-04-18T09:24:40.640Z,408.00
2023-04-18T09:25:42.148Z,405.00
2023-04-18T09:26:40.658Z,404.00
2023-04-18T09:27:40.671Z,405.00
2023-04-18T09:28:40.623Z,407.00
2023-04-18T09:29:40.601Z,403.00
2023-04-18T09:30:40.683Z,404.00
2023-04-18T09:31:40.561Z,401.00
2023-04-18T09:32:40.571Z,401.00
2023-04-18T09:33:40.529Z,398.00
2023-04-18T09:34:40.496Z,399.00
2023-04-18T09:35:40.487Z,400.00
2023-04-18T09:36:40.473Z,400.00
2023-04-18T09:37:40.571Z,398.00
2023-04-18T09:38:40.394Z,400.00
2023-04-18T09:39:40.370Z,402.00
2023-04-18T09:40:40.358Z,405.00
2023-04-18T09:41:40.348Z,403.00
2023-04-18T09:42:40.300Z,403.00
2023-04-18T09:43:40.269Z,401.00
2023-04-18T09:44:40.242Z,402.00
2023-04-18T09:45:40.716Z,401.00
2023-04-18T09:46:40.375Z,400.00
2023-04-18T09:47:40.209Z,402.00
2023-04-18T09:48:40.252Z,400.00
2023-04-18T09:49:40.127Z,404.00
2023-04-18T09:50:40.168Z,402.00
2023-04-18T09:51:40.110Z,403.00
2023-04-18T09:52:40.110Z,405.00
2023-04-18T09:53:40.041Z,408.00
2023-04-18T09:54:40.024Z,405.00
2023-04-18T09:55:40.039Z,407.00
2023-04-18T09:56:40.013Z,408.00
2023-04-18T09:57:40.002Z,406.00
2023-04-18T09:58:40.060Z,403.00
2023-04-18T09:59:40.068Z,400.00
2023-04-18T10:00:40.261Z,398.00
2023-04-18T10:01:40.181Z,396.00
2023-04-18T10:02:40.256Z,396.00
2023-04-18T10:03:40.266Z,394.00
2023-04-18T10:04:40.379Z,395.00
2023-04-18T10:05:40.338Z,396.00
2023-04-18T10:06:40.357Z,396.00
2023-04-18T10:07:41.210Z,395.00
2023-04-18T10:08:40.287Z,394.00
2023-04-18T10:09:40.289Z,401.00
2023-04-18T10:10:40.280Z,401.00
2023-04-18T10:11:40.236Z,403.00
2023-04-18T10:12:40.192Z,404.00
2023-04-18T10:13:40.164Z,403.00
2023-04-18T10:14:40.130Z,405.00
2023-04-18T10:15:41.715Z,405.00
2023-04-18T10:16:40.206Z,405.00
2023-04-18T10:17:44.598Z,405.00
2023-04-18T10:18:41.060Z,406.00
2023-04-18T10:19:40.028Z,406.00
2023-04-18T10:20:40.052Z,403.00
2023-04-18T10:21:40.006Z,403.00
2023-04-18T10:22:39.968Z,404.00
2023-04-18T10:23:39.975Z,405.00
2023-04-18T10:24:39.906Z,407.00
2023-04-18T10:25:39.882Z,407.00
2023-04-18T10:26:40.019Z,407.00
2023-04-18T10:27:39.842Z,407.00
2023-04-18T10:28:39.847Z,407.00
2023-04-18T10:29:39.897Z,405.00
2023-04-18T10:30:40.013Z,407.00
2023-04-18T10:31:40.008Z,407.00
2023-04-18T10:32:40.089Z,408.00
2023-04-18T10:33:42.510Z,404.00
2023-04-18T10:34:40.101Z,404.00
2023-04-18T10:35:41.332Z,404.00
2023-04-18T10:36:40.088Z,404.00
2023-04-18T10:37:40.021Z,404.00
2023-04-18T10:38:40.028Z,404.00
2023-04-18T10:39:39.968Z,404.00
2023-04-18T10:40:39.957Z,400.00
2023-04-18T10:41:40.224Z,398.00
2023-04-18T10:42:39.907Z,399.00
2023-04-18T10:43:39.891Z,401.00
2023-04-18T10:44:40.740Z,403.00
2023-04-18T10:45:39.859Z,403.00
2023-04-18T10:46:39.984Z,403.00
2023-04-18T10:47:39.997Z,401.00
2023-04-18T10:48:39.811Z,400.00
2023-04-18T10:49:39.782Z,399.00
2023-04-18T10:50:39.853Z,399.00
2023-04-18T10:51:39.760Z,399.00
2023-04-18T10:52:39.896Z,401.00
2023-04-18T10:53:39.717Z,400.00
2023-04-18T10:54:39.712Z,399.00
2023-04-18T10:55:39.695Z,399.00
2023-04-18T10:56:39.667Z,397.00
2023-04-18T10:57:39.664Z,399.00
2023-04-18T10:58:39.624Z,400.00
2023-04-18T10:59:39.668Z,401.00
2023-04-18T11:00:39.683Z,398.00
2023-04-18T11:01:39.879Z,397.00
2023-04-18T11:02:39.874Z,401.00
2023-04-18T11:03:39.779Z,399.00
2023-04-18T11:04:39.733Z,397.00
2023-04-18T11:05:39.744Z,396.00
2023-04-18T11:06:39.772Z,400.00
2023-04-18T11:07:39.778Z,400.00
2023-04-18T11:08:39.989Z,400.00
2023-04-18T11:09:39.810Z,399.00
2023-04-18T11:10:39.825Z,397.00
2023-04-18T11:11:39.839Z,395.00
2023-04-18T11:12:39.786Z,395.00
2023-04-18T11:13:39.748Z,394.00
2023-04-18T11:14:39.751Z,393.00
2023-04-18T11:15:39.724Z,394.00
2023-04-18T11:16:39.934Z,392.00
2023-04-18T11:17:39.674Z,392.00
2023-04-18T11:18:39.625Z,392.00
2023-04-18T11:19:39.594Z,393.00
2023-04-18T11:20:39.766Z,395.00
2023-04-18T11:21:39.560Z,393.00
2023-04-18T11:22:39.525Z,394.00
2023-04-18T11:23:39.498Z,393.00
2023-04-18T11:24:39.509Z,392.00
2023-04-18T11:25:39.489Z,389.00
2023-04-18T11:26:39.428Z,391.00
2023-04-18T11:27:39.403Z,392.00
2023-04-18T11:28:39.437Z,390.00
2023-04-18T11:29:39.506Z,389.00
2023-04-18T11:30:39.345Z,389.00
2023-04-18T11:31:39.388Z,390.00
2023-04-18T11:32:39.310Z,390.00
2023-04-18T11:33:39.274Z,388.00
2023-04-18T11:34:39.247Z,388.00
2023-04-18T11:35:39.212Z,387.00
2023-04-18T11:36:39.215Z,387.00
2023-04-18T11:37:39.288Z,387.00
2023-04-18T11:38:39.215Z,387.00
2023-04-18T11:39:39.219Z,390.00
2023-04-18T11:40:39.228Z,389.00
2023-04-18T11:41:39.253Z,390.00
2023-04-18T11:42:39.263Z,392.00
2023-04-18T11:43:39.273Z,393.00
2023-04-18T11:44:39.341Z,392.00
2023-04-18T11:45:39.330Z,391.00
2023-04-18T11:46:39.342Z,393.00
2023-04-18T11:47:39.332Z,396.00
2023-04-18T11:48:39.292Z,393.00
2023-04-18T11:49:39.300Z,395.00
2023-04-18T11:50:39.300Z,393.00
2023-04-18T11:51:39.338Z,391.00
2023-04-18T11:52:39.310Z,391.00
2023-04-18T11:53:39.267Z,390.00
2023-04-18T11:54:39.269Z,390.00
2023-04-18T11:55:39.237Z,392.00
2023-04-18T11:56:39.218Z,395.00
2023-04-18T11:57:39.201Z,394.00
2023-04-18T11:58:39.194Z,393.00
2023-04-18T11:59:39.185Z,391.00
2023-04-18T12:00:39.129Z,392.00
2023-04-18T12:01:39.120Z,391.00
2023-04-18T12:02:39.254Z,391.00
2023-04-18T12:03:39.206Z,390.00
2023-04-18T12:04:39.276Z,390.00
2023-04-18T12:05:39.209Z,388.00
2023-04-18T12:06:39.011Z,385.00
2023-04-18T12:07:38.976Z,385.00
2023-04-18T12:08:38.948Z,386.00
2023-04-18T12:09:38.925Z,386.00
2023-04-18T12:10:38.899Z,385.00
2023-04-18T12:11:38.887Z,386.00
2023-04-18T12:12:38.873Z,386.00
2023-04-18T12:13:38.834Z,385.00
2023-04-18T12:14:38.785Z,385.00
2023-04-18T12:15:38.907Z,385.00
2023-04-18T12:16:38.755Z,383.00
2023-04-18T12:17:38.751Z,383.00
2023-04-18T12:18:38.698Z,382.00
2023-04-18T12:19:38.663Z,381.00
2023-04-18T12:20:38.635Z,380.00
2023-04-18T12:21:38.601Z,384.00
2023-04-18T12:22:38.586Z,386.00
2023-04-18T12:23:38.563Z,385.00
2023-04-18T12:24:38.534Z,386.00
2023-04-18T12:25:38.523Z,387.00
2023-04-18T12:26:38.473Z,390.00
2023-04-18T12:27:38.473Z,386.00
2023-04-18T12:28:38.460Z,388.00